sensor_id;sensor_type;location;lat;lon;timestamp;pressure;altitude;pressure_sealevel;temperature;humidity
53340;BME280;46212;50.258;19.062;2023-05-27T00:02:02;99238.09;;;10.78;64.54
53340;BME280;46212;50.258;19.062;2023-05-27T00:04:27;99243.97;;;10.80;65.35
53340;BME280;46212;50.258;19.062;2023-05-27T00:06:53;99236.34;;;10.72;65.59
53340;BME280;46212;50.258;19.062;2023-05-27T00:09:18;99242.75;;;10.69;66.01
53340;BME280;46212;50.258;19.062;2023-05-27T00:11:44;99232.56;;;10.53;66.18
53340;BME280;46212;50.258;19.062;2023-05-27T00:14:09;99236.88;;;10.66;65.77
53340;BME280;46212;50.258;19.062;2023-05-27T00:16:34;99236.47;;;10.68;65.06
53340;BME280;46212;50.258;19.062;2023-05-27T00:19:01;99247.16;;;10.66;65.24
53340;BME280;46212;50.258;19.062;2023-05-27T00:21:26;99246.06;;;10.63;65.11
53340;BME280;46212;50.258;19.062;2023-05-27T00:23:52;99239.53;;;10.57;65.46
53340;BME280;46212;50.258;19.062;2023-05-27T00:26:17;99250.59;;;10.57;65.42
53340;BME280;46212;50.258;19.062;2023-05-27T00:28:43;99244.84;;;10.52;65.13
53340;BME280;46212;50.258;19.062;2023-05-27T00:31:08;99240.06;;;10.40;65.71
53340;BME280;46212;50.258;19.062;2023-05-27T00:33:34;99243.72;;;10.49;66.14
53340;BME280;46212;50.258;19.062;2023-05-27T00:35:59;99248.09;;;10.34;66.71
53340;BME280;46212;50.258;19.062;2023-05-27T00:38:24;99254.81;;;10.21;67.65
53340;BME280;46212;50.258;19.062;2023-05-27T00:40:52;99249.41;;;10.17;67.50
53340;BME280;46212;50.258;19.062;2023-05-27T00:43:18;99256.38;;;10.34;67.08
53340;BME280;46212;50.258;19.062;2023-05-27T00:45:43;99251.28;;;10.20;67.54
53340;BME280;46212;50.258;19.062;2023-05-27T00:48:09;99254.91;;;10.17;68.16
53340;BME280;46212;50.258;19.062;2023-05-27T00:50:35;99250.88;;;10.34;67.63
53340;BME280;46212;50.258;19.062;2023-05-27T00:53:01;99252.13;;;10.46;67.11
53340;BME280;46212;50.258;19.062;2023-05-27T00:55:27;99247.50;;;10.81;65.52
53340;BME280;46212;50.258;19.062;2023-05-27T00:57:52;99251.28;;;10.74;65.41
53340;BME280;46212;50.258;19.062;2023-05-27T01:00:19;99251.16;;;11.03;64.18
53340;BME280;46212;50.258;19.062;2023-05-27T01:02:45;99254.47;;;10.73;64.95
53340;BME280;46212;50.258;19.062;2023-05-27T01:05:13;99251.00;;;10.56;66.47
53340;BME280;46212;50.258;19.062;2023-05-27T01:10:50;99257.31;;;10.56;66.76
53340;BME280;46212;50.258;19.062;2023-05-27T01:16:09;99249.91;;;10.66;66.08
53340;BME280;46212;50.258;19.062;2023-05-27T01:18:36;99254.78;;;10.62;66.49
53340;BME280;46212;50.258;19.062;2023-05-27T01:21:06;99255.69;;;10.72;66.11
53340;BME280;46212;50.258;19.062;2023-05-27T01:23:32;99250.38;;;10.77;65.84
53340;BME280;46212;50.258;19.062;2023-05-27T01:25:58;99246.63;;;10.71;66.15
53340;BME280;46212;50.258;19.062;2023-05-27T01:28:23;99248.03;;;10.50;66.75
53340;BME280;46212;50.258;19.062;2023-05-27T01:30:51;99243.75;;;10.62;66.48
53340;BME280;46212;50.258;19.062;2023-05-27T01:33:21;99254.44;;;10.47;67.08
53340;BME280;46212;50.258;19.062;2023-05-27T01:35:53;99253.59;;;10.22;68.14
53340;BME280;46212;50.258;19.062;2023-05-27T01:38:21;99263.84;;;10.21;68.11
53340;BME280;46212;50.258;19.062;2023-05-27T01:40:51;99255.16;;;10.23;68.59
53340;BME280;46212;50.258;19.062;2023-05-27T01:43:19;99244.66;;;10.18;68.36
53340;BME280;46212;50.258;19.062;2023-05-27T01:45:44;99246.53;;;10.21;68.66
53340;BME280;46212;50.258;19.062;2023-05-27T01:48:10;99252.09;;;10.04;68.90
53340;BME280;46212;50.258;19.062;2023-05-27T01:50:36;99252.03;;;9.92;69.48
53340;BME280;46212;50.258;19.062;2023-05-27T01:53:02;99247.00;;;10.03;69.92
53340;BME280;46212;50.258;19.062;2023-05-27T01:55:28;99253.28;;;10.03;69.80
53340;BME280;46212;50.258;19.062;2023-05-27T01:57:54;99249.13;;;10.11;69.72
53340;BME280;46212;50.258;19.062;2023-05-27T02:00:19;99251.06;;;10.15;69.26
53340;BME280;46212;50.258;19.062;2023-05-27T02:02:45;99257.34;;;10.28;68.96
53340;BME280;46212;50.258;19.062;2023-05-27T02:05:10;99247.69;;;10.36;68.69
53340;BME280;46212;50.258;19.062;2023-05-27T02:07:36;99254.38;;;10.22;68.75
53340;BME280;46212;50.258;19.062;2023-05-27T02:10:01;99254.16;;;10.00;70.15
53340;BME280;46212;50.258;19.062;2023-05-27T02:12:27;99243.03;;;10.04;70.25
53340;BME280;46212;50.258;19.062;2023-05-27T02:14:52;99261.81;;;10.09;70.01
53340;BME280;46212;50.258;19.062;2023-05-27T02:17:17;99254.34;;;9.93;70.28
53340;BME280;46212;50.258;19.062;2023-05-27T02:19:43;99265.09;;;9.75;70.98
53340;BME280;46212;50.258;19.062;2023-05-27T02:22:08;99269.03;;;9.74;71.40
53340;BME280;46212;50.258;19.062;2023-05-27T02:24:34;99270.03;;;9.51;71.97
53340;BME280;46212;50.258;19.062;2023-05-27T02:27:01;99267.47;;;9.60;72.09
53340;BME280;46212;50.258;19.062;2023-05-27T02:29:27;99277.88;;;9.53;72.10
53340;BME280;46212;50.258;19.062;2023-05-27T02:31:52;99273.06;;;9.57;72.42
53340;BME280;46212;50.258;19.062;2023-05-27T02:34:18;99282.84;;;9.74;72.47
53340;BME280;46212;50.258;19.062;2023-05-27T02:36:43;99280.22;;;9.83;71.93
53340;BME280;46212;50.258;19.062;2023-05-27T02:39:09;99289.66;;;9.86;71.81
53340;BME280;46212;50.258;19.062;2023-05-27T02:41:35;99288.91;;;9.69;72.52
53340;BME280;46212;50.258;19.062;2023-05-27T02:44:01;99286.41;;;9.42;73.37
53340;BME280;46212;50.258;19.062;2023-05-27T02:46:26;99283.06;;;9.35;74.59
53340;BME280;46212;50.258;19.062;2023-05-27T02:48:51;99288.13;;;9.20;75.16
53340;BME280;46212;50.258;19.062;2023-05-27T02:51:17;99285.38;;;9.36;74.81
53340;BME280;46212;50.258;19.062;2023-05-27T02:53:42;99289.84;;;9.30;75.10
53340;BME280;46212;50.258;19.062;2023-05-27T02:56:07;99287.63;;;9.41;74.66
53340;BME280;46212;50.258;19.062;2023-05-27T02:58:33;99292.13;;;9.35;74.95
53340;BME280;46212;50.258;19.062;2023-05-27T03:00:58;99290.38;;;9.25;75.70
53340;BME280;46212;50.258;19.062;2023-05-27T03:03:24;99297.53;;;9.23;75.70
53340;BME280;46212;50.258;19.062;2023-05-27T03:05:50;99301.84;;;9.40;75.49
53340;BME280;46212;50.258;19.062;2023-05-27T03:08:15;99308.47;;;9.58;74.85
53340;BME280;46212;50.258;19.062;2023-05-27T03:10:41;99306.31;;;9.50;75.21
53340;BME280;46212;50.258;19.062;2023-05-27T03:13:06;99308.38;;;9.30;75.55
53340;BME280;46212;50.258;19.062;2023-05-27T03:15:31;99313.47;;;9.31;76.19
53340;BME280;46212;50.258;19.062;2023-05-27T03:17:57;99315.19;;;9.25;76.03
53340;BME280;46212;50.258;19.062;2023-05-27T03:20:23;99316.56;;;9.33;76.10
53340;BME280;46212;50.258;19.062;2023-05-27T03:22:48;99320.00;;;9.37;76.17
53340;BME280;46212;50.258;19.062;2023-05-27T03:25:14;99314.50;;;9.37;76.77
53340;BME280;46212;50.258;19.062;2023-05-27T03:27:40;99316.91;;;9.35;76.56
53340;BME280;46212;50.258;19.062;2023-05-27T03:30:06;99328.78;;;9.65;75.89
53340;BME280;46212;50.258;19.062;2023-05-27T03:32:33;99331.22;;;9.46;76.15
53340;BME280;46212;50.258;19.062;2023-05-27T03:34:58;99321.91;;;9.40;77.03
53340;BME280;46212;50.258;19.062;2023-05-27T03:37:23;99328.78;;;9.48;76.52
53340;BME280;46212;50.258;19.062;2023-05-27T03:39:49;99326.66;;;9.40;76.91
53340;BME280;46212;50.258;19.062;2023-05-27T03:42:14;99337.84;;;9.33;77.29
53340;BME280;46212;50.258;19.062;2023-05-27T03:44:40;99341.44;;;9.30;77.26
53340;BME280;46212;50.258;19.062;2023-05-27T03:47:05;99342.47;;;9.36;77.04
53340;BME280;46212;50.258;19.062;2023-05-27T03:49:31;99354.09;;;9.27;77.63
53340;BME280;46212;50.258;19.062;2023-05-27T03:51:56;99356.19;;;9.39;77.44
53340;BME280;46212;50.258;19.062;2023-05-27T03:54:22;99348.19;;;9.45;77.53
53340;BME280;46212;50.258;19.062;2023-05-27T03:56:47;99347.59;;;9.53;76.75
53340;BME280;46212;50.258;19.062;2023-05-27T03:59:12;99356.56;;;9.41;76.98
53340;BME280;46212;50.258;19.062;2023-05-27T04:01:38;99357.66;;;9.44;77.30
53340;BME280;46212;50.258;19.062;2023-05-27T04:04:04;99358.00;;;9.62;76.60
53340;BME280;46212;50.258;19.062;2023-05-27T04:06:30;99357.91;;;9.49;77.28
53340;BME280;46212;50.258;19.062;2023-05-27T04:08:56;99353.72;;;9.45;77.45
53340;BME280;46212;50.258;19.062;2023-05-27T04:11:22;99361.28;;;9.57;77.36
53340;BME280;46212;50.258;19.062;2023-05-27T04:13:47;99360.00;;;9.61;77.33
53340;BME280;46212;50.258;19.062;2023-05-27T04:16:14;99373.69;;;9.65;77.27
53340;BME280;46212;50.258;19.062;2023-05-27T04:18:40;99371.47;;;9.92;76.92
53340;BME280;46212;50.258;19.062;2023-05-27T04:21:06;99372.19;;;10.09;75.78
53340;BME280;46212;50.258;19.062;2023-05-27T04:23:33;99365.56;;;10.23;75.69
53340;BME280;46212;50.258;19.062;2023-05-27T04:25:58;99362.56;;;10.17;75.81
53340;BME280;46212;50.258;19.062;2023-05-27T04:28:24;99361.25;;;10.22;75.84
53340;BME280;46212;50.258;19.062;2023-05-27T04:30:49;99363.59;;;10.23;75.37
53340;BME280;46212;50.258;19.062;2023-05-27T04:33:15;99365.38;;;10.30;74.93
53340;BME280;46212;50.258;19.062;2023-05-27T04:35:42;99370.03;;;10.33;75.40
53340;BME280;46212;50.258;19.062;2023-05-27T04:38:10;99364.22;;;10.15;76.08
53340;BME280;46212;50.258;19.062;2023-05-27T04:40:35;99359.50;;;10.56;74.92
53340;BME280;46212;50.258;19.062;2023-05-27T04:43:01;99376.09;;;10.69;74.16
53340;BME280;46212;50.258;19.062;2023-05-27T04:45:26;99372.38;;;10.76;73.80
53340;BME280;46212;50.258;19.062;2023-05-27T04:47:52;99369.94;;;10.65;73.89
53340;BME280;46212;50.258;19.062;2023-05-27T04:50:17;99380.19;;;10.64;74.61
53340;BME280;46212;50.258;19.062;2023-05-27T04:52:43;99369.88;;;10.81;73.94
53340;BME280;46212;50.258;19.062;2023-05-27T04:55:09;99371.72;;;10.72;73.75
53340;BME280;46212;50.258;19.062;2023-05-27T04:57:35;99371.50;;;10.79;74.17
53340;BME280;46212;50.258;19.062;2023-05-27T05:00:02;99379.09;;;11.03;72.20
53340;BME280;46212;50.258;19.062;2023-05-27T05:02:29;99374.13;;;11.24;71.27
53340;BME280;46212;50.258;19.062;2023-05-27T05:05:02;99377.44;;;11.31;70.42
53340;BME280;46212;50.258;19.062;2023-05-27T05:07:28;99366.38;;;11.18;70.55
53340;BME280;46212;50.258;19.062;2023-05-27T05:09:53;99360.97;;;11.15;71.72
53340;BME280;46212;50.258;19.062;2023-05-27T05:12:19;99366.16;;;11.38;70.84
53340;BME280;46212;50.258;19.062;2023-05-27T05:14:44;99372.44;;;11.51;69.83
53340;BME280;46212;50.258;19.062;2023-05-27T05:17:09;99371.69;;;11.63;69.17
53340;BME280;46212;50.258;19.062;2023-05-27T05:19:35;99371.44;;;11.58;69.88
53340;BME280;46212;50.258;19.062;2023-05-27T05:22:01;99365.94;;;11.45;70.07
53340;BME280;46212;50.258;19.062;2023-05-27T05:24:26;99362.84;;;11.43;70.48
53340;BME280;46212;50.258;19.062;2023-05-27T05:26:51;99364.81;;;11.55;70.30
53340;BME280;46212;50.258;19.062;2023-05-27T05:29:17;99371.00;;;11.85;68.44
53340;BME280;46212;50.258;19.062;2023-05-27T05:31:42;99367.34;;;11.88;68.87
53340;BME280;46212;50.258;19.062;2023-05-27T05:34:10;99364.03;;;11.80;69.01
53340;BME280;46212;50.258;19.062;2023-05-27T05:36:35;99367.00;;;11.98;68.98
53340;BME280;46212;50.258;19.062;2023-05-27T05:39:02;99369.44;;;11.96;68.92
53340;BME280;46212;50.258;19.062;2023-05-27T05:41:28;99363.13;;;11.96;68.19
53340;BME280;46212;50.258;19.062;2023-05-27T05:43:54;99365.84;;;12.08;67.47
53340;BME280;46212;50.258;19.062;2023-05-27T05:46:19;99365.09;;;12.08;68.07
53340;BME280;46212;50.258;19.062;2023-05-27T05:48:45;99371.16;;;12.15;67.36
53340;BME280;46212;50.258;19.062;2023-05-27T05:51:10;99378.00;;;12.23;67.83
53340;BME280;46212;50.258;19.062;2023-05-27T05:53:35;99372.25;;;12.18;67.65
53340;BME280;46212;50.258;19.062;2023-05-27T05:56:01;99378.63;;;12.27;67.70
53340;BME280;46212;50.258;19.062;2023-05-27T05:58:26;99381.06;;;12.60;66.12
53340;BME280;46212;50.258;19.062;2023-05-27T06:00:52;99378.75;;;12.80;64.66
53340;BME280;46212;50.258;19.062;2023-05-27T06:03:17;99378.63;;;12.84;64.27
53340;BME280;46212;50.258;19.062;2023-05-27T06:05:42;99384.31;;;12.80;65.63
53340;BME280;46212;50.258;19.062;2023-05-27T06:08:08;99377.56;;;12.68;66.00
53340;BME280;46212;50.258;19.062;2023-05-27T06:10:34;99378.41;;;12.78;65.14
53340;BME280;46212;50.258;19.062;2023-05-27T06:13:00;99377.72;;;12.87;64.56
53340;BME280;46212;50.258;19.062;2023-05-27T06:15:25;99374.84;;;13.21;64.60
53340;BME280;46212;50.258;19.062;2023-05-27T06:17:53;99378.72;;;13.23;64.77
53340;BME280;46212;50.258;19.062;2023-05-27T06:20:19;99372.91;;;13.30;64.35
53340;BME280;46212;50.258;19.062;2023-05-27T06:22:44;99378.53;;;13.49;62.66
53340;BME280;46212;50.258;19.062;2023-05-27T06:25:12;99379.47;;;13.55;61.17
53340;BME280;46212;50.258;19.062;2023-05-27T06:27:38;99376.50;;;13.40;61.67
53340;BME280;46212;50.258;19.062;2023-05-27T06:30:03;99379.94;;;13.53;62.33
53340;BME280;46212;50.258;19.062;2023-05-27T06:32:29;99376.41;;;13.62;61.65
53340;BME280;46212;50.258;19.062;2023-05-27T06:34:54;99383.06;;;13.73;61.23
53340;BME280;46212;50.258;19.062;2023-05-27T06:37:20;99380.78;;;13.72;60.28
53340;BME280;46212;50.258;19.062;2023-05-27T06:39:46;99388.00;;;13.69;61.85
53340;BME280;46212;50.258;19.062;2023-05-27T06:42:11;99385.41;;;13.75;61.11
53340;BME280;46212;50.258;19.062;2023-05-27T06:44:36;99385.53;;;13.71;61.43
53340;BME280;46212;50.258;19.062;2023-05-27T06:47:02;99381.09;;;13.83;60.39
53340;BME280;46212;50.258;19.062;2023-05-27T06:49:27;99384.53;;;13.96;60.50
53340;BME280;46212;50.258;19.062;2023-05-27T06:51:53;99382.25;;;14.13;59.17
53340;BME280;46212;50.258;19.062;2023-05-27T06:54:19;99385.03;;;14.31;58.19
53340;BME280;46212;50.258;19.062;2023-05-27T06:56:44;99384.63;;;14.42;58.54
53340;BME280;46212;50.258;19.062;2023-05-27T06:59:10;99388.47;;;14.53;57.10
53340;BME280;46212;50.258;19.062;2023-05-27T07:01:35;99376.91;;;14.55;57.22
53340;BME280;46212;50.258;19.062;2023-05-27T07:04:00;99385.22;;;14.55;57.29
53340;BME280;46212;50.258;19.062;2023-05-27T07:06:26;99387.38;;;14.69;57.65
53340;BME280;46212;50.258;19.062;2023-05-27T07:08:51;99379.50;;;14.76;57.13
53340;BME280;46212;50.258;19.062;2023-05-27T07:11:17;99384.59;;;14.78;57.46
53340;BME280;46212;50.258;19.062;2023-05-27T07:13:42;99381.13;;;15.10;56.09
53340;BME280;46212;50.258;19.062;2023-05-27T07:16:08;99385.44;;;15.20;55.30
53340;BME280;46212;50.258;19.062;2023-05-27T07:18:33;99385.44;;;15.20;55.86
53340;BME280;46212;50.258;19.062;2023-05-27T07:20:58;99381.81;;;15.38;53.57
53340;BME280;46212;50.258;19.062;2023-05-27T07:23:24;99386.78;;;15.34;53.76
53340;BME280;46212;50.258;19.062;2023-05-27T07:25:50;99383.19;;;15.42;53.32
53340;BME280;46212;50.258;19.062;2023-05-27T07:28:15;99384.13;;;15.49;53.43
53340;BME280;46212;50.258;19.062;2023-05-27T07:30:41;99382.25;;;15.46;53.85
53340;BME280;46212;50.258;19.062;2023-05-27T07:33:06;99387.03;;;15.54;53.98
53340;BME280;46212;50.258;19.062;2023-05-27T07:35:31;99381.91;;;15.62;53.80
53340;BME280;46212;50.258;19.062;2023-05-27T07:37:57;99377.88;;;15.63;53.58
53340;BME280;46212;50.258;19.062;2023-05-27T07:40:22;99376.16;;;15.65;54.26
53340;BME280;46212;50.258;19.062;2023-05-27T07:42:48;99386.19;;;15.72;53.69
53340;BME280;46212;50.258;19.062;2023-05-27T07:45:13;99370.78;;;15.62;54.59
53340;BME280;46212;50.258;19.062;2023-05-27T07:47:39;99379.69;;;15.75;53.21
53340;BME280;46212;50.258;19.062;2023-05-27T07:50:05;99375.66;;;15.76;53.00
53340;BME280;46212;50.258;19.062;2023-05-27T07:52:30;99384.84;;;15.91;51.70
53340;BME280;46212;50.258;19.062;2023-05-27T07:54:55;99383.84;;;16.03;52.05
53340;BME280;46212;50.258;19.062;2023-05-27T07:57:22;99380.00;;;16.01;50.66
53340;BME280;46212;50.258;19.062;2023-05-27T07:59:48;99376.16;;;15.98;50.67
53340;BME280;46212;50.258;19.062;2023-05-27T08:02:13;99377.06;;;15.95;50.92
53340;BME280;46212;50.258;19.062;2023-05-27T08:04:38;99375.84;;;15.96;51.31
53340;BME280;46212;50.258;19.062;2023-05-27T08:07:04;99375.59;;;16.09;52.27
53340;BME280;46212;50.258;19.062;2023-05-27T08:09:29;99374.25;;;16.04;51.18
53340;BME280;46212;50.258;19.062;2023-05-27T08:11:57;99369.69;;;16.16;52.62
53340;BME280;46212;50.258;19.062;2023-05-27T08:14:22;99371.09;;;16.49;52.26
53340;BME280;46212;50.258;19.062;2023-05-27T08:16:49;99362.81;;;16.64;51.13
53340;BME280;46212;50.258;19.062;2023-05-27T08:19:16;99372.31;;;16.58;51.27
53340;BME280;46212;50.258;19.062;2023-05-27T08:21:41;99365.13;;;16.66;53.13
53340;BME280;46212;50.258;19.062;2023-05-27T08:24:06;99360.41;;;16.72;52.20
53340;BME280;46212;50.258;19.062;2023-05-27T08:26:32;99358.88;;;16.85;50.14
53340;BME280;46212;50.258;19.062;2023-05-27T08:28:57;99365.63;;;16.93;49.76
53340;BME280;46212;50.258;19.062;2023-05-27T08:31:22;99358.88;;;16.85;49.12
53340;BME280;46212;50.258;19.062;2023-05-27T08:33:48;99353.50;;;16.82;50.22
53340;BME280;46212;50.258;19.062;2023-05-27T08:36:13;99359.63;;;16.71;49.76
53340;BME280;46212;50.258;19.062;2023-05-27T08:38:40;99364.28;;;16.74;50.16
53340;BME280;46212;50.258;19.062;2023-05-27T08:41:06;99355.41;;;16.76;50.81
53340;BME280;46212;50.258;19.062;2023-05-27T08:43:32;99346.69;;;16.83;50.48
53340;BME280;46212;50.258;19.062;2023-05-27T08:46:00;99352.06;;;16.86;50.51
53340;BME280;46212;50.258;19.062;2023-05-27T08:48:26;99344.75;;;17.04;49.52
53340;BME280;46212;50.258;19.062;2023-05-27T08:50:51;99346.56;;;17.21;50.81
53340;BME280;46212;50.258;19.062;2023-05-27T08:53:17;99340.97;;;17.36;50.03
53340;BME280;46212;50.258;19.062;2023-05-27T08:55:43;99342.59;;;17.42;48.80
53340;BME280;46212;50.258;19.062;2023-05-27T08:58:10;99332.66;;;17.41;46.78
53340;BME280;46212;50.258;19.062;2023-05-27T09:00:36;99344.41;;;17.45;46.91
53340;BME280;46212;50.258;19.062;2023-05-27T09:03:02;99353.59;;;17.31;46.49
53340;BME280;46212;50.258;19.062;2023-05-27T09:05:28;99344.06;;;17.23;47.59
53340;BME280;46212;50.258;19.062;2023-05-27T09:07:54;99349.72;;;17.29;46.17
53340;BME280;46212;50.258;19.062;2023-05-27T09:10:20;99334.31;;;17.33;45.85
53340;BME280;46212;50.258;19.062;2023-05-27T09:12:46;99331.03;;;17.35;45.78
53340;BME280;46212;50.258;19.062;2023-05-27T09:15:12;99329.66;;;17.45;45.54
53340;BME280;46212;50.258;19.062;2023-05-27T09:17:42;99334.56;;;17.65;47.00
53340;BME280;46212;50.258;19.062;2023-05-27T09:20:09;99333.97;;;17.75;46.18
53340;BME280;46212;50.258;19.062;2023-05-27T09:22:36;99328.91;;;17.79;47.12
53340;BME280;46212;50.258;19.062;2023-05-27T09:25:01;99334.88;;;17.87;45.31
53340;BME280;46212;50.258;19.062;2023-05-27T09:27:28;99329.66;;;17.94;44.87
53340;BME280;46212;50.258;19.062;2023-05-27T09:29:57;99321.97;;;18.10;45.97
53340;BME280;46212;50.258;19.062;2023-05-27T09:32:27;99314.97;;;18.20;44.40
53340;BME280;46212;50.258;19.062;2023-05-27T09:34:54;99326.63;;;18.18;42.59
53340;BME280;46212;50.258;19.062;2023-05-27T09:37:24;99312.84;;;18.15;43.43
53340;BME280;46212;50.258;19.062;2023-05-27T09:39:51;99320.81;;;18.22;43.46
53340;BME280;46212;50.258;19.062;2023-05-27T09:42:17;99322.38;;;18.23;43.28
53340;BME280;46212;50.258;19.062;2023-05-27T09:44:45;99326.97;;;18.26;43.67
53340;BME280;46212;50.258;19.062;2023-05-27T09:47:14;99322.22;;;18.32;42.39
53340;BME280;46212;50.258;19.062;2023-05-27T09:49:42;99320.72;;;18.36;42.63
53340;BME280;46212;50.258;19.062;2023-05-27T09:52:09;99311.09;;;18.37;43.35
53340;BME280;46212;50.258;19.062;2023-05-27T09:54:36;99312.94;;;18.46;43.54
53340;BME280;46212;50.258;19.062;2023-05-27T09:57:03;99316.19;;;18.59;42.18
53340;BME280;46212;50.258;19.062;2023-05-27T09:59:31;99312.72;;;18.70;42.29
53340;BME280;46212;50.258;19.062;2023-05-27T10:01:57;99313.22;;;18.68;42.17
53340;BME280;46212;50.258;19.062;2023-05-27T10:04:24;99312.13;;;18.60;41.48
53340;BME280;46212;50.258;19.062;2023-05-27T10:06:50;99312.50;;;18.73;42.67
53340;BME280;46212;50.258;19.062;2023-05-27T10:09:17;99314.03;;;18.74;41.58
53340;BME280;46212;50.258;19.062;2023-05-27T10:11:43;99310.50;;;18.74;41.60
53340;BME280;46212;50.258;19.062;2023-05-27T10:14:09;99312.56;;;18.79;42.04
53340;BME280;46212;50.258;19.062;2023-05-27T10:16:37;99314.41;;;18.87;41.48
53340;BME280;46212;50.258;19.062;2023-05-27T10:19:02;99300.63;;;18.84;42.73
53340;BME280;46212;50.258;19.062;2023-05-27T10:21:42;99306.16;;;19.04;40.40
53340;BME280;46212;50.258;19.062;2023-05-27T10:24:09;99309.78;;;19.10;41.04
53340;BME280;46212;50.258;19.062;2023-05-27T10:26:38;99313.56;;;19.07;38.17
53340;BME280;46212;50.258;19.062;2023-05-27T10:29:11;99303.03;;;18.96;39.23
53340;BME280;46212;50.258;19.062;2023-05-27T10:31:48;99312.03;;;19.06;40.08
53340;BME280;46212;50.258;19.062;2023-05-27T10:34:14;99307.78;;;19.16;41.05
53340;BME280;46212;50.258;19.062;2023-05-27T10:36:39;99298.97;;;19.29;39.80
53340;BME280;46212;50.258;19.062;2023-05-27T10:41:50;99302.66;;;19.40;38.98
53340;BME280;46212;50.258;19.062;2023-05-27T10:44:45;99301.09;;;19.39;38.89
53340;BME280;46212;50.258;19.062;2023-05-27T10:47:14;99305.66;;;19.37;38.56
53340;BME280;46212;50.258;19.062;2023-05-27T10:49:44;99295.00;;;19.41;38.19
53340;BME280;46212;50.258;19.062;2023-05-27T10:52:12;99295.84;;;19.52;36.62
53340;BME280;46212;50.258;19.062;2023-05-27T10:54:43;99290.06;;;19.67;36.42
53340;BME280;46212;50.258;19.062;2023-05-27T10:57:09;99290.91;;;19.79;35.73
53340;BME280;46212;50.258;19.062;2023-05-27T10:59:48;99289.94;;;19.93;34.68
53340;BME280;46212;50.258;19.062;2023-05-27T11:02:14;99296.13;;;20.08;33.67
53340;BME280;46212;50.258;19.062;2023-05-27T11:04:40;99289.50;;;20.05;34.03
53340;BME280;46212;50.258;19.062;2023-05-27T11:07:05;99290.56;;;20.19;33.97
53340;BME280;46212;50.258;19.062;2023-05-27T11:09:45;99286.78;;;20.28;33.40
53340;BME280;46212;50.258;19.062;2023-05-27T11:12:14;99287.09;;;20.41;31.57
53340;BME280;46212;50.258;19.062;2023-05-27T11:14:52;99289.38;;;20.42;32.03
53340;BME280;46212;50.258;19.062;2023-05-27T11:17:18;99290.44;;;20.50;32.45
53340;BME280;46212;50.258;19.062;2023-05-27T11:19:45;99284.59;;;20.71;31.04
53340;BME280;46212;50.258;19.062;2023-05-27T11:22:11;99276.44;;;20.89;30.84
53340;BME280;46212;50.258;19.062;2023-05-27T11:24:38;99279.22;;;21.06;30.96
53340;BME280;46212;50.258;19.062;2023-05-27T11:27:10;99282.06;;;21.23;29.59
53340;BME280;46212;50.258;19.062;2023-05-27T11:29:49;99281.81;;;20.98;27.50
53340;BME280;46212;50.258;19.062;2023-05-27T11:32:18;99283.59;;;21.12;31.99
53340;BME280;46212;50.258;19.062;2023-05-27T11:34:45;99279.78;;;21.21;29.41
53340;BME280;46212;50.258;19.062;2023-05-27T11:37:11;99285.66;;;21.23;29.24
53340;BME280;46212;50.258;19.062;2023-05-27T11:39:37;99283.84;;;21.31;30.50
53340;BME280;46212;50.258;19.062;2023-05-27T11:42:05;99278.25;;;21.14;28.97
53340;BME280;46212;50.258;19.062;2023-05-27T11:44:32;99279.28;;;21.11;28.99
53340;BME280;46212;50.258;19.062;2023-05-27T11:47:00;99272.13;;;21.27;30.37
53340;BME280;46212;50.258;19.062;2023-05-27T11:49:27;99268.47;;;21.54;32.34
53340;BME280;46212;50.258;19.062;2023-05-27T11:51:55;99268.94;;;21.69;29.44
53340;BME280;46212;50.258;19.062;2023-05-27T11:54:27;99267.34;;;21.85;28.46
53340;BME280;46212;50.258;19.062;2023-05-27T11:56:54;99261.97;;;21.87;28.28
53340;BME280;46212;50.258;19.062;2023-05-27T11:59:22;99259.97;;;21.77;26.98
53340;BME280;46212;50.258;19.062;2023-05-27T12:01:49;99264.06;;;21.76;30.23
53340;BME280;46212;50.258;19.062;2023-05-27T12:04:15;99258.38;;;22.03;30.53
53340;BME280;46212;50.258;19.062;2023-05-27T12:06:42;99258.25;;;22.26;30.02
53340;BME280;46212;50.258;19.062;2023-05-27T12:09:09;99256.81;;;22.54;29.64
53340;BME280;46212;50.258;19.062;2023-05-27T12:11:36;99257.81;;;22.57;28.16
53340;BME280;46212;50.258;19.062;2023-05-27T12:14:01;99255.69;;;22.68;28.71
53340;BME280;46212;50.258;19.062;2023-05-27T12:16:27;99251.47;;;22.86;29.56
53340;BME280;46212;50.258;19.062;2023-05-27T12:18:53;99249.16;;;22.85;27.16
53340;BME280;46212;50.258;19.062;2023-05-27T12:21:19;99251.22;;;22.84;28.57
53340;BME280;46212;50.258;19.062;2023-05-27T12:23:47;99250.09;;;22.98;30.09
53340;BME280;46212;50.258;19.062;2023-05-27T12:26:14;99241.81;;;23.06;27.39
53340;BME280;46212;50.258;19.062;2023-05-27T12:28:40;99251.97;;;22.85;28.02
53340;BME280;46212;50.258;19.062;2023-05-27T12:31:06;99242.00;;;22.43;27.25
53340;BME280;46212;50.258;19.062;2023-05-27T12:33:32;99234.94;;;22.71;28.11
53340;BME280;46212;50.258;19.062;2023-05-27T12:35:58;99236.66;;;23.10;26.85
53340;BME280;46212;50.258;19.062;2023-05-27T12:38:24;99238.47;;;23.07;26.69
53340;BME280;46212;50.258;19.062;2023-05-27T12:40:49;99237.84;;;22.90;25.95
53340;BME280;46212;50.258;19.062;2023-05-27T12:43:15;99238.41;;;23.13;26.50
53340;BME280;46212;50.258;19.062;2023-05-27T12:45:41;99233.78;;;23.45;26.57
53340;BME280;46212;50.258;19.062;2023-05-27T12:48:06;99228.97;;;24.02;26.12
53340;BME280;46212;50.258;19.062;2023-05-27T12:50:32;99229.84;;;24.34;24.76
53340;BME280;46212;50.258;19.062;2023-05-27T12:52:58;99217.09;;;24.78;24.90
53340;BME280;46212;50.258;19.062;2023-05-27T12:55:25;99236.22;;;25.04;23.66
53340;BME280;46212;50.258;19.062;2023-05-27T12:57:51;99227.25;;;24.87;24.91